Time;durP1;ratioP1;P1;durP2;ratioP2;P2;SDS_P1;SDS_P2;PMS_P1;PMS_P2;Temp;Humidity;BMP_temperature;BMP_pressure;BME280_temperature;BME280_humidity;BME280_pressure;Samples;Min_cycle;Max_cycle;Signal;HPM_P1;HPM_P2
2023/07/17 00:03:09;;;;;;;7.82;3.28;;;;;;;18.65;86.95;100567.00;8324086;28;20072;-63
2023/07/17 00:07:10;;;;;;;6.05;3.50;;;;;;;18.84;87.24;100571.84;8323892;28;20041;-62
2023/07/17 00:11:10;;;;;;;8.18;3.13;;;;;;;18.96;86.07;100589.50;8323784;28;20045;-62
2023/07/17 00:15:11;;;;;;;6.75;3.10;;;;;;;19.21;84.95;100601.81;8324143;28;20086;-61
2023/07/17 00:19:11;;;;;;;8.13;3.40;;;;;;;19.24;85.13;100595.94;8323164;28;20499;-62
2023/07/17 00:23:11;;;;;;;6.35;3.25;;;;;;;19.56;82.72;100593.75;8323910;28;20056;-61
2023/07/17 00:27:12;;;;;;;5.25;2.40;;;;;;;19.69;80.05;100611.19;8323544;28;20045;-61
2023/07/17 00:31:13;;;;;;;5.50;2.33;;;;;;;19.72;78.55;100604.44;8323474;28;20034;-60
2023/07/17 00:35:13;;;;;;;4.55;2.13;;;;;;;19.71;77.47;100616.47;8322476;28;20037;-61
2023/07/17 00:39:14;;;;;;;2.97;1.85;;;;;;;19.73;77.46;100623.44;8321661;28;20164;-60
2023/07/17 00:43:15;;;;;;;7.57;2.00;;;;;;;19.63;78.56;100622.09;8323563;28;20043;-61
2023/07/17 00:47:15;;;;;;;3.97;1.55;;;;;;;19.62;78.90;100629.47;8321705;28;20040;-61
2023/07/17 00:51:16;;;;;;;4.63;2.25;;;;;;;19.57;79.19;100648.41;8312729;28;20064;-61
2023/07/17 00:55:18;;;;;;;4.22;1.83;;;;;;;19.49;79.87;100648.56;8323143;28;20033;-61
2023/07/17 00:59:19;;;;;;;5.50;2.15;;;;;;;19.48;80.28;100646.00;8322936;28;20509;-61
2023/07/17 01:03:21;;;;;;;6.18;1.98;;;;;;;19.33;81.44;100638.66;8323070;28;20144;-61
2023/07/17 01:07:21;;;;;;;5.50;1.90;;;;;;;19.21;82.08;100634.69;8323054;28;20604;-61
2023/07/17 01:11:22;;;;;;;5.20;2.00;;;;;;;19.02;83.41;100632.56;8329727;28;20084;-61
2023/07/17 01:15:24;;;;;;;5.20;1.80;;;;;;;18.95;83.87;100626.16;8329232;28;20492;-61
2023/07/17 01:19:24;;;;;;;5.82;2.40;;;;;;;18.95;84.52;100639.88;8328954;28;20399;-61
2023/07/17 01:23:25;;;;;;;4.13;2.10;;;;;;;18.98;84.20;100644.97;8329442;28;20038;-61
2023/07/17 01:27:25;;;;;;;6.25;2.30;;;;;;;19.05;84.46;100653.25;8328453;28;20500;-61
2023/07/17 01:31:26;;;;;;;5.07;2.65;;;;;;;19.02;84.89;100667.34;8329117;28;20061;-61
2023/07/17 01:35:26;;;;;;;5.88;2.35;;;;;;;18.97;84.91;100659.69;8328414;28;20079;-61
2023/07/17 01:39:27;;;;;;;7.43;2.60;;;;;;;18.87;85.71;100664.63;8328479;28;20090;-61
2023/07/17 01:43:27;;;;;;;6.57;2.53;;;;;;;18.77;86.41;100669.56;8328733;28;20384;-61
2023/07/17 01:47:28;;;;;;;5.78;3.03;;;;;;;18.69;86.83;100661.41;8326627;28;20065;-61
2023/07/17 01:51:28;;;;;;;8.25;2.90;;;;;;;18.71;87.02;100670.31;8328585;28;20115;-62
2023/07/17 01:55:29;;;;;;;9.07;3.28;;;;;;;18.61;87.34;100669.75;8328562;28;20052;-61
2023/07/17 01:59:31;;;;;;;5.15;2.40;;;;;;;18.54;87.86;100678.91;8327914;28;20042;-61
2023/07/17 02:03:32;;;;;;;9.05;2.70;;;;;;;18.67;88.62;100679.91;8316597;28;20103;-61
2023/07/17 02:07:34;;;;;;;11.85;3.33;;;;;;;18.68;88.48;100669.81;8328685;28;20145;-61
2023/07/17 02:11:38;;;;;;;9.57;2.65;;;;;;;18.77;87.52;100664.06;8325235;28;20522;-61
2023/07/17 02:15:38;;;;;;;5.70;2.33;;;;;;;18.60;86.85;100662.56;8325344;28;20049;-61
2023/07/17 02:19:40;;;;;;;5.93;2.17;;;;;;;18.48;88.03;100669.53;8323961;28;20712;-62
2023/07/17 02:23:41;;;;;;;4.68;2.15;;;;;;;18.43;87.57;100674.75;8322125;28;20037;-62
2023/07/17 02:27:42;;;;;;;3.55;2.22;;;;;;;18.10;90.69;100669.72;8324822;28;20037;-61
2023/07/17 02:31:43;;;;;;;8.73;2.83;;;;;;;17.81;93.62;100653.25;8317277;28;20100;-61
2023/07/17 02:35:43;;;;;;;9.05;3.25;;;;;;;17.57;95.22;100668.78;8315752;28;20403;-67
2023/07/17 02:39:44;;;;;;;5.00;2.70;;;;;;;17.38;96.42;100665.63;8325135;28;20037;-66
2023/07/17 02:43:44;;;;;;;6.82;2.40;;;;;;;17.32;95.63;100680.03;8325178;28;20041;-66
2023/07/17 02:47:45;;;;;;;5.28;2.60;;;;;;;17.28;94.29;100674.09;8319510;28;20286;-66
2023/07/17 02:51:45;;;;;;;5.32;2.40;;;;;;;17.49;92.91;100687.13;8322935;28;20050;-67
2023/07/17 02:55:46;;;;;;;7.03;2.63;;;;;;;17.38;92.56;100668.38;8325540;28;20041;-67
2023/07/17 02:59:46;;;;;;;6.25;2.78;;;;;;;17.57;92.03;100667.97;8323249;28;20408;-68
2023/07/17 03:03:49;;;;;;;6.03;2.42;;;;;;;17.43;93.27;100666.00;8325649;28;20131;-68
2023/07/17 03:07:50;;;;;;;11.98;3.13;;;;;;;17.25;94.71;100662.66;8325090;28;20540;-68
2023/07/17 03:11:51;;;;;;;4.05;2.08;;;;;;;16.91;96.17;100687.59;8325317;28;20052;-68
2023/07/17 03:15:51;;;;;;;7.10;3.00;;;;;;;17.05;95.41;100688.72;8324864;28;20079;-68
2023/07/17 03:19:51;;;;;;;6.53;2.78;;;;;;;17.28;94.77;100684.16;8324234;28;20390;-68
2023/07/17 03:23:52;;;;;;;3.97;2.45;;;;;;;17.38;92.39;100690.25;8324913;28;20058;-68
2023/07/17 03:27:53;;;;;;;4.15;2.47;;;;;;;17.50;91.73;100688.81;8324285;28;20053;-68
2023/07/17 03:31:53;;;;;;;5.25;2.80;;;;;;;17.55;89.86;100686.41;8324532;28;20037;-68
2023/07/17 03:35:54;;;;;;;6.40;2.20;;;;;;;17.60;89.00;100689.47;8323681;28;20033;-68
2023/07/17 03:39:54;;;;;;;6.05;2.28;;;;;;;17.62;88.46;100698.31;8323812;28;20053;-69
2023/07/17 03:43:58;;;;;;;4.70;2.38;;;;;;;17.56;88.65;100697.16;8324067;28;20048;-68
2023/07/17 03:47:58;;;;;;;7.50;2.50;;;;;;;17.48;88.63;100691.75;8322508;28;20037;-69
2023/07/17 03:52:03;;;;;;;5.67;2.30;;;;;;;17.57;88.52;100698.03;8321303;28;20068;-68
2023/07/17 03:56:03;;;;;;;7.13;2.60;;;;;;;17.56;87.74;100694.44;8323798;28;20042;-68
2023/07/17 04:00:09;;;;;;;5.50;2.60;;;;;;;17.43;88.29;100704.25;8322840;28;20041;-68
2023/07/17 04:04:27;;;;;;;5.25;2.17;;;;;;;17.54;87.94;100712.06;8313827;28;20393;-67
2023/07/17 04:08:27;;;;;;;4.68;2.45;;;;;;;17.53;87.87;100715.81;8317988;28;20029;-68
2023/07/17 04:12:28;;;;;;;5.32;2.20;;;;;;;17.55;87.25;100711.03;8318630;28;20459;-67
2023/07/17 04:16:30;;;;;;;6.97;2.53;;;;;;;17.67;86.90;100712.31;8307439;28;20052;-67
2023/07/17 04:20:32;;;;;;;6.65;2.17;;;;;;;17.75;86.58;100725.91;8315626;28;20504;-67
2023/07/17 04:24:35;;;;;;;8.45;2.75;;;;;;;17.89;85.72;100727.00;8318034;28;20045;-67
2023/07/17 04:28:36;;;;;;;7.03;2.58;;;;;;;17.83;85.74;100728.59;8317238;28;20535;-67
2023/07/17 04:32:36;;;;;;;6.20;2.72;;;;;;;17.87;85.52;100735.41;8315024;28;20100;-67
2023/07/17 04:36:38;;;;;;;5.47;1.98;;;;;;;17.99;85.66;100738.59;8317250;28;20045;-67
2023/07/17 04:40:39;;;;;;;3.92;2.33;;;;;;;18.25;84.53;100745.38;8315391;28;20045;-67
2023/07/17 04:44:43;;;;;;;5.68;2.38;;;;;;;18.34;83.81;100748.88;8301923;28;20376;-67
2023/07/17 04:48:45;;;;;;;7.15;2.60;;;;;;;18.13;84.88;100746.84;8312010;28;20052;-67
2023/07/17 04:52:45;;;;;;;4.90;1.95;;;;;;;18.15;84.52;100750.25;8322316;28;20041;-67
2023/07/17 04:56:46;;;;;;;4.00;1.95;;;;;;;18.21;84.38;100754.97;8315240;28;20491;-67
2023/07/17 05:00:59;;;;;;;5.35;1.98;;;;;;;18.58;81.99;100757.75;8324722;28;20046;-67
2023/07/17 05:04:59;;;;;;;8.38;1.98;;;;;;;18.81;80.91;100764.00;8317299;28;20046;-67
2023/07/17 05:09:02;;;;;;;5.63;1.98;;;;;;;18.95;80.02;100760.44;8316936;28;20388;-67
2023/07/17 05:13:03;;;;;;;4.07;1.80;;;;;;;19.18;79.86;100768.53;8312915;28;20041;-66
2023/07/17 05:17:03;;;;;;;16.65;2.25;;;;;;;19.43;79.04;100770.81;8290843;28;20053;-66
2023/07/17 05:21:04;;;;;;;37.28;3.53;;;;;;;19.48;78.64;100769.44;8289831;28;20112;-67
2023/07/17 05:25:06;;;;;;;6.30;1.55;;;;;;;20.38;75.86;100769.59;8290928;28;20527;-60
2023/07/17 05:29:06;;;;;;;7.75;2.22;;;;;;;20.69;74.00;100774.72;8296564;28;20632;-65
2023/07/17 05:33:07;;;;;;;8.90;1.52;;;;;;;20.79;73.11;100780.69;8276654;28;20056;-55
2023/07/17 05:37:08;;;;;;;5.28;2.00;;;;;;;21.02;72.57;100786.84;8287182;28;20042;-61
2023/07/17 05:41:08;;;;;;;3.78;1.90;;;;;;;20.67;73.93;100793.28;8287819;28;20092;-57
2023/07/17 05:45:09;;;;;;;12.00;1.63;;;;;;;20.41;74.71;100790.31;8292164;28;20132;-64
2023/07/17 05:49:10;;;;;;;8.60;1.95;;;;;;;20.05;75.89;100793.09;8287525;28;20038;-63
2023/07/17 05:53:11;;;;;;;12.45;2.17;;;;;;;20.22;75.71;100800.06;8289078;28;20045;-60
2023/07/17 05:57:11;;;;;;;7.93;1.40;;;;;;;20.48;75.00;100810.44;8286119;28;20404;-57
2023/07/17 06:01:12;;;;;;;21.80;2.50;;;;;;;20.86;74.46;100803.63;8284835;28;20038;-55
2023/07/17 06:05:13;;;;;;;20.20;1.80;;;;;;;21.04;73.38;100812.22;8295431;28;20045;-60
2023/07/17 06:09:14;;;;;;;9.75;2.15;;;;;;;21.28;71.89;100809.84;8275228;28;20038;-63
2023/07/17 06:13:16;;;;;;;5.63;2.03;;;;;;;21.42;70.71;100821.78;8283748;28;20396;-59
2023/07/17 06:17:17;;;;;;;4.80;1.60;;;;;;;21.66;69.61;100821.28;8285328;28;20615;-59
2023/07/17 06:21:17;;;;;;;4.80;1.88;;;;;;;21.67;68.52;100825.72;8285292;28;20612;-58
2023/07/17 06:25:19;;;;;;;6.85;2.10;;;;;;;21.75;65.61;100828.34;8283072;28;20187;-62
2023/07/17 06:29:20;;;;;;;4.15;2.60;;;;;;;21.87;65.58;100831.34;8287606;28;20069;-62
2023/07/17 06:33:22;;;;;;;5.55;2.30;;;;;;;22.05;64.27;100829.69;8278178;28;20038;-67
2023/07/17 06:37:22;;;;;;;4.18;2.28;;;;;;;22.16;63.38;100847.53;8275710;28;20661;-62
2023/07/17 06:41:23;;;;;;;9.43;2.17;;;;;;;22.12;63.37;100836.09;8286927;28;20442;-61
2023/07/17 06:45:23;;;;;;;4.38;2.10;;;;;;;21.70;63.29;100841.81;8277615;28;20467;-71
2023/07/17 06:49:24;;;;;;;13.80;2.78;;;;;;;21.56;64.11;100844.72;8272853;28;20042;-67
2023/07/17 06:53:24;;;;;;;7.45;2.33;;;;;;;21.75;63.70;100850.34;8277219;28;20358;-68
2023/07/17 06:57:25;;;;;;;5.65;2.70;;;;;;;21.68;62.97;100854.94;8281001;28;20394;-67
2023/07/17 07:01:25;;;;;;;6.10;2.53;;;;;;;21.80;63.03;100863.50;8282516;28;20113;-68
2023/07/17 07:05:26;;;;;;;8.35;2.60;;;;;;;21.93;61.95;100847.91;8277345;28;20053;-66
2023/07/17 07:09:26;;;;;;;19.02;3.10;;;;;;;21.83;62.25;100858.41;8279905;28;20575;-67
2023/07/17 07:13:29;;;;;;;7.63;2.63;;;;;;;22.13;61.87;100868.06;8281940;28;20567;-67
2023/07/17 07:17:30;;;;;;;7.10;2.92;;;;;;;22.34;61.39;100851.41;8284298;28;20041;-67
2023/07/17 07:21:30;;;;;;;9.02;2.83;;;;;;;22.33;61.15;100862.63;8273045;28;20046;-67
2023/07/17 07:25:31;;;;;;;5.93;2.90;;;;;;;22.32;61.44;100875.56;8280685;28;20540;-67
2023/07/17 07:29:31;;;;;;;18.30;4.05;;;;;;;22.40;60.23;100867.09;8276826;28;20362;-67
2023/07/17 07:33:32;;;;;;;12.65;3.75;;;;;;;22.55;60.03;100877.97;8279927;28;20301;-67
2023/07/17 07:37:33;;;;;;;12.25;3.85;;;;;;;22.58;60.03;100870.16;8281663;28;20120;-67
2023/07/17 07:41:35;;;;;;;28.25;5.75;;;;;;;22.59;60.09;100866.31;8275062;28;20423;-67
2023/07/17 07:45:35;;;;;;;15.05;3.95;;;;;;;22.83;59.92;100870.38;8280704;28;20030;-67
2023/07/17 07:49:36;;;;;;;8.63;3.22;;;;;;;22.86;59.40;100876.31;8282925;28;20049;-67
2023/07/17 07:53:36;;;;;;;4.93;2.60;;;;;;;22.84;59.23;100874.84;8275431;28;20488;-67
2023/07/17 07:57:36;;;;;;;5.22;2.80;;;;;;;22.80;58.54;100874.41;8277355;28;20034;-67
2023/07/17 08:01:37;;;;;;;3.83;2.72;;;;;;;23.15;58.96;100881.41;8279713;28;20130;-67
2023/07/17 08:05:37;;;;;;;15.15;3.42;;;;;;;23.20;57.25;100881.63;8284865;28;20041;-67
2023/07/17 08:09:38;;;;;;;7.57;3.38;;;;;;;23.10;57.80;100881.19;8285126;28;20083;-67
2023/07/17 08:13:38;;;;;;;8.77;3.60;;;;;;;23.29;56.47;100884.19;8286168;28;20060;-68
2023/07/17 08:17:38;;;;;;;13.88;3.10;;;;;;;23.27;56.53;100883.56;8285523;28;20065;-67
2023/07/17 08:21:39;;;;;;;9.57;3.38;;;;;;;23.61;55.62;100875.00;8285292;28;20045;-67
2023/07/17 08:25:39;;;;;;;7.55;3.60;;;;;;;23.74;55.24;100883.22;8285478;28;20050;-63
2023/07/17 08:29:40;;;;;;;5.20;3.40;;;;;;;23.45;55.19;100889.25;8284443;28;20435;-66
2023/07/17 08:33:40;;;;;;;7.03;3.15;;;;;;;23.61;55.13;100878.63;8285593;28;20100;-67
2023/07/17 08:37:41;;;;;;;8.05;3.40;;;;;;;23.68;55.73;100873.91;8285265;28;20042;-67
2023/07/17 08:41:45;;;;;;;11.10;3.05;;;;;;;23.62;54.29;100874.78;8284273;28;20046;-67
2023/07/17 08:45:47;;;;;;;6.10;2.90;;;;;;;23.72;54.38;100879.88;8281011;28;20538;-67
2023/07/17 08:49:48;;;;;;;5.82;3.00;;;;;;;23.85;54.42;100886.16;8288477;28;20492;-67
2023/07/17 08:53:52;;;;;;;25.65;5.50;;;;;;;23.73;54.37;100887.06;8290095;28;20042;-67
2023/07/17 08:57:53;;;;;;;5.70;3.40;;;;;;;24.07;54.55;100884.00;8291025;28;20042;-67
2023/07/17 09:01:54;;;;;;;5.53;2.80;;;;;;;24.39;54.04;100882.97;8290190;28;20054;-67
2023/07/17 09:05:54;;;;;;;13.18;2.85;;;;;;;24.41;53.80;100886.38;8281035;28;20048;-67
2023/07/17 09:10:19;;;;;;;6.63;2.88;;;;;;;24.19;54.19;100894.16;8295872;28;20054;-67
2023/07/17 09:14:20;;;;;;;7.32;3.22;;;;;;;24.25;54.41;100893.28;8282479;28;20076;-67
2023/07/17 09:18:24;;;;;;;6.05;3.08;;;;;;;24.55;52.89;100894.38;8296942;28;20450;-67
2023/07/17 09:22:24;;;;;;;6.33;3.13;;;;;;;24.95;53.01;100901.34;8288282;28;20038;-68
2023/07/17 09:26:26;;;;;;;7.25;2.85;;;;;;;24.86;53.15;100896.34;8288673;28;20030;-67
2023/07/17 09:30:26;;;;;;;8.13;3.47;;;;;;;24.42;54.48;100899.13;8288096;28;20377;-67
2023/07/17 09:34:27;;;;;;;7.18;3.88;;;;;;;24.27;54.09;100899.41;8288380;28;20037;-67
2023/07/17 09:38:28;;;;;;;8.30;2.97;;;;;;;24.37;54.46;100890.66;8279477;28;20038;-67
2023/07/17 09:42:30;;;;;;;5.70;3.10;;;;;;;24.84;53.62;100909.53;8289895;28;20046;-67
2023/07/17 09:46:33;;;;;;;8.50;3.05;;;;;;;25.22;53.06;100885.38;8289756;28;20033;-67
2023/07/17 09:50:34;;;;;;;6.57;3.67;;;;;;;25.23;52.86;100903.69;8289912;28;20046;-68
2023/07/17 09:54:35;;;;;;;11.25;4.00;;;;;;;25.74;51.70;100895.13;8290058;28;20777;-67
2023/07/17 09:58:39;;;;;;;6.82;3.35;;;;;;;25.22;52.64;100896.44;8289322;28;20041;-68
2023/07/17 10:02:46;;;;;;;8.77;3.80;;;;;;;25.06;52.46;100901.72;8288751;28;20049;-68
2023/07/17 10:06:50;;;;;;;7.13;3.25;;;;;;;26.27;51.91;100894.28;8284783;28;20046;-68
2023/07/17 10:10:51;;;;;;;9.10;3.28;;;;;;;27.94;47.88;100894.75;8290163;28;20041;-68
2023/07/17 10:14:53;;;;;;;6.68;3.63;;;;;;;28.97;46.01;100901.84;8289163;28;20169;-68
2023/07/17 10:18:55;;;;;;;8.95;3.20;;;;;;;30.05;45.05;100908.66;8286983;28;20045;-68
2023/07/17 10:22:55;;;;;;;7.10;3.08;;;;;;;30.11;44.88;100904.84;8288812;28;20050;-68
2023/07/17 10:26:57;;;;;;;5.60;2.80;;;;;;;29.58;45.53;100910.16;8288384;28;20488;-68
2023/07/17 10:31:07;;;;;;;7.30;3.25;;;;;;;30.15;45.33;100906.00;8287920;28;20045;-68
2023/07/17 10:35:19;;;;;;;6.28;3.15;;;;;;;30.78;43.46;100898.97;8275224;28;20048;-68
2023/07/17 10:39:25;;;;;;;4.78;3.00;;;;;;;31.22;41.77;100894.94;8287999;28;20030;-68
2023/07/17 10:43:26;;;;;;;5.43;3.15;;;;;;;29.86;43.58;100910.09;8288061;28;20118;-68
2023/07/17 10:47:27;;;;;;;4.78;2.67;;;;;;;30.02;43.10;100894.38;8284387;28;20035;-68
2023/07/17 10:51:28;;;;;;;4.70;2.33;;;;;;;30.24;43.56;100893.31;8296824;28;20040;-68
2023/07/17 10:55:30;;;;;;;6.78;3.38;;;;;;;29.08;44.29;100909.34;8286526;28;20439;-68
2023/07/17 10:59:30;;;;;;;7.97;2.80;;;;;;;30.55;43.43;100893.69;8288226;28;20049;-68
2023/07/17 11:03:31;;;;;;;4.95;2.40;;;;;;;31.18;40.69;100893.78;8288011;28;20547;-68
2023/07/17 11:07:34;;;;;;;19.37;3.60;;;;;;;30.32;42.21;100900.38;8288101;28;20065;-68
2023/07/17 11:11:34;;;;;;;6.60;2.55;;;;;;;29.09;43.48;100901.84;8282686;28;20478;-68
2023/07/17 11:15:36;;;;;;;6.70;2.90;;;;;;;27.17;46.57;100903.41;8285594;28;20041;-68
2023/07/17 11:19:36;;;;;;;5.53;3.17;;;;;;;26.83;46.65;100902.22;8286836;28;20037;-66
2023/07/17 11:23:50;;;;;;;10.10;2.90;;;;;;;26.24;46.91;100902.19;8286813;28;20052;-66
2023/07/17 11:27:50;;;;;;;10.73;3.33;;;;;;;26.12;48.71;100898.53;8282131;28;20363;-67
2023/07/17 11:31:59;;;;;;;6.15;3.22;;;;;;;26.37;48.26;100885.38;8284903;28;20053;-66
2023/07/17 11:36:00;;;;;;;8.70;2.72;;;;;;;29.75;43.39;100888.72;8286216;28;20045;-66
2023/07/17 11:40:06;;;;;;;10.95;3.50;;;;;;;28.70;44.17;100875.75;8286479;28;20128;-66
2023/07/17 11:44:07;;;;;;;15.30;4.25;;;;;;;27.94;46.71;100883.63;8276823;28;20476;-67
2023/07/17 11:48:08;;;;;;;4.55;2.95;;;;;;;29.45;45.34;100887.38;8285507;28;20124;-67
2023/07/17 11:52:17;;;;;;;5.65;3.25;;;;;;;28.67;45.13;100884.63;8285514;28;20042;-66
2023/07/17 11:56:21;;;;;;;7.88;3.28;;;;;;;27.72;48.28;100888.13;8282480;28;20053;-66
2023/07/17 12:00:22;;;;;;;12.40;3.22;;;;;;;26.62;48.28;100870.31;8285199;28;20097;-65
2023/07/17 12:04:25;;;;;;;13.35;3.13;;;;;;;27.34;47.01;100871.94;8285855;28;20037;-66
2023/07/17 12:08:25;;;;;;;3.95;2.33;;;;;;;29.58;44.00;100876.72;8276236;28;20434;-66
2023/07/17 12:12:26;;;;;;;6.70;2.83;;;;;;;29.83;43.22;100874.34;8285432;28;20037;-66
2023/07/17 12:16:26;;;;;;;7.38;3.03;;;;;;;28.72;44.05;100861.59;8285426;28;20089;-67
2023/07/17 12:20:29;;;;;;;7.10;3.08;;;;;;;28.21;45.24;100856.97;8285443;28;20058;-67
2023/07/17 12:24:30;;;;;;;16.27;3.67;;;;;;;27.17;47.10;100847.88;8285941;28;20447;-67
2023/07/17 12:28:31;;;;;;;7.80;3.70;;;;;;;26.80;48.17;100850.84;8291417;28;20071;-66
2023/07/17 12:32:31;;;;;;;13.23;3.45;;;;;;;26.71;48.72;100841.16;8291970;28;20553;-66
2023/07/17 12:36:31;;;;;;;6.83;3.20;;;;;;;26.67;49.17;100852.97;8291896;28;20384;-66
2023/07/17 12:40:32;;;;;;;9.88;3.45;;;;;;;26.45;49.97;100855.41;8291359;28;20273;-66
2023/07/17 12:44:33;;;;;;;7.95;3.80;;;;;;;26.56;49.41;100851.00;8291777;28;20587;-66
2023/07/17 12:48:33;;;;;;;10.40;3.70;;;;;;;26.56;49.52;100856.53;8291476;28;20068;-66
2023/07/17 12:52:34;;;;;;;12.93;3.90;;;;;;;26.79;50.01;100840.81;8291254;28;20495;-66
2023/07/17 12:56:34;;;;;;;6.25;3.10;;;;;;;26.54;49.30;100847.59;8290877;28;20419;-66
2023/07/17 13:00:35;;;;;;;8.30;3.17;;;;;;;26.39;48.34;100845.25;8290754;28;20044;-66
2023/07/17 13:04:35;;;;;;;7.40;2.40;;;;;;;26.08;49.26;100848.25;8290590;28;20042;-66
2023/07/17 13:08:36;;;;;;;4.63;2.75;;;;;;;26.56;48.63;100846.28;8290524;28;20061;-66
2023/07/17 13:12:36;;;;;;;6.32;2.30;;;;;;;26.85;47.80;100844.56;8290933;28;20488;-66
2023/07/17 13:16:37;;;;;;;6.90;2.20;;;;;;;26.96;46.88;100845.69;8290404;28;20579;-66
2023/07/17 13:20:37;;;;;;;13.07;2.35;;;;;;;26.58;47.60;100833.03;8290415;28;20121;-66
2023/07/17 13:24:38;;;;;;;22.33;3.95;;;;;;;26.84;48.29;100846.50;8288605;28;20403;-66
2023/07/17 13:28:39;;;;;;;11.05;2.65;;;;;;;26.88;46.95;100837.69;8290280;28;20038;-66
2023/07/17 13:32:39;;;;;;;5.10;2.72;;;;;;;26.74;49.51;100846.22;8295667;28;20042;-66
2023/07/17 13:36:39;;;;;;;14.77;3.22;;;;;;;26.99;47.52;100834.09;8289414;28;20038;-66
2023/07/17 13:40:40;;;;;;;2.85;2.08;;;;;;;27.19;47.75;100826.25;8289052;28;20517;-64
2023/07/17 13:44:41;;;;;;;6.72;2.85;;;;;;;26.52;48.43;100831.19;8289879;28;20045;-65
2023/07/17 13:48:41;;;;;;;68.95;5.40;;;;;;;26.21;50.48;100831.44;8289140;28;20073;-65
2023/07/17 13:52:41;;;;;;;10.57;2.77;;;;;;;26.12;49.86;100832.84;8290096;28;20042;-66
2023/07/17 13:56:42;;;;;;;11.27;3.15;;;;;;;26.78;50.44;100830.78;8287033;28;20276;-66
2023/07/17 14:00:43;;;;;;;6.32;2.40;;;;;;;26.81;50.76;100822.00;8284208;28;20058;-66
2023/07/17 14:04:44;;;;;;;8.68;2.58;;;;;;;26.24;49.72;100828.19;8285032;28;20096;-65
2023/07/17 14:08:44;;;;;;;7.85;2.38;;;;;;;26.32;50.07;100821.47;8287219;28;20077;-66
2023/07/17 14:12:45;;;;;;;4.72;2.35;;;;;;;26.37;49.13;100814.13;8288911;28;20052;-66
2023/07/17 14:16:45;;;;;;;8.45;2.97;;;;;;;26.37;50.08;100811.38;8288311;28;20046;-66
2023/07/17 14:20:47;;;;;;;3.67;2.25;;;;;;;26.43;49.24;100812.34;8281638;28;20042;-66
2023/07/17 14:24:47;;;;;;;3.85;1.77;;;;;;;26.16;49.30;100817.44;8286896;28;20124;-66
2023/07/17 14:28:48;;;;;;;6.03;2.28;;;;;;;25.97;49.54;100817.66;8288184;28;20411;-66
2023/07/17 14:32:49;;;;;;;5.45;2.20;;;;;;;25.86;50.44;100826.78;8288514;28;20080;-66
2023/07/17 14:36:50;;;;;;;8.80;1.92;;;;;;;25.49;49.47;100825.91;8288773;28;20042;-66
2023/07/17 14:40:50;;;;;;;5.33;2.33;;;;;;;25.32;50.67;100829.53;8288346;28;20334;-66
2023/07/17 14:44:51;;;;;;;5.13;2.25;;;;;;;24.99;52.71;100832.59;8286856;28;20334;-66
2023/07/17 14:48:51;;;;;;;5.90;2.10;;;;;;;24.81;53.46;100833.38;8283499;28;20609;-66
2023/07/17 14:52:52;;;;;;;6.90;2.13;;;;;;;24.62;53.82;100844.56;8288821;28;20042;-66
2023/07/17 14:56:52;;;;;;;3.90;2.15;;;;;;;24.60;54.62;100830.09;8287428;28;20346;-66
2023/07/17 15:00:53;;;;;;;10.65;2.50;;;;;;;25.12;54.94;100843.53;8268650;28;20050;-66
2023/07/17 15:04:53;;;;;;;6.22;1.77;;;;;;;25.60;54.51;100840.94;8287302;28;20042;-66
2023/07/17 15:08:53;;;;;;;7.35;2.10;;;;;;;25.50;53.35;100849.78;8287427;28;20099;-66
2023/07/17 15:12:54;;;;;;;4.03;2.10;;;;;;;25.90;52.84;100855.72;8287052;28;20134;-66
2023/07/17 15:16:54;;;;;;;4.40;1.45;;;;;;;25.62;51.82;100859.03;8287058;28;20033;-66
2023/07/17 15:20:55;;;;;;;5.43;1.85;;;;;;;25.57;52.94;100856.09;8277047;28;20042;-66
2023/07/17 15:24:55;;;;;;;3.47;1.40;;;;;;;25.89;53.50;100857.63;8285902;28;20499;-66
2023/07/17 15:28:56;;;;;;;5.78;1.25;;;;;;;25.69;51.33;100857.03;8286252;28;20080;-66
2023/07/17 15:32:56;;;;;;;5.32;1.45;;;;;;;25.92;51.77;100859.94;8286866;28;20416;-66
2023/07/17 15:36:57;;;;;;;3.47;1.25;;;;;;;25.75;52.32;100852.47;8281062;28;20456;-66
2023/07/17 15:40:58;;;;;;;4.20;1.55;;;;;;;25.76;53.55;100866.09;8270764;28;20493;-66
2023/07/17 15:45:03;;;;;;;3.50;1.40;;;;;;;25.53;52.22;100863.19;8280723;28;20518;-66
2023/07/17 15:49:04;;;;;;;3.00;1.40;;;;;;;25.63;52.80;100866.25;8285448;28;20599;-66
2023/07/17 15:53:04;;;;;;;5.30;1.30;;;;;;;25.65;51.59;100864.13;8286052;28;20433;-66
2023/07/17 15:57:05;;;;;;;3.00;1.40;;;;;;;25.46;51.95;100865.16;8286419;28;20041;-66
2023/07/17 16:01:05;;;;;;;5.43;1.65;;;;;;;25.29;53.84;100875.09;8283887;28;20041;-66
2023/07/17 16:05:06;;;;;;;3.28;1.73;;;;;;;25.01;53.50;100872.78;8285294;28;20484;-66
2023/07/17 16:09:07;;;;;;;4.90;1.42;;;;;;;24.79;53.82;100884.44;8283921;28;20454;-66
2023/07/17 16:13:08;;;;;;;5.38;1.83;;;;;;;24.92;53.82;100873.31;8283663;28;20038;-66
2023/07/17 16:17:08;;;;;;;3.65;1.60;;;;;;;25.32;53.55;100869.16;8283782;28;20053;-66
2023/07/17 16:21:09;;;;;;;2.45;1.50;;;;;;;25.34;53.82;100886.34;8285374;28;20042;-66
2023/07/17 16:25:10;;;;;;;3.15;1.83;;;;;;;25.14;54.54;100893.13;8278718;28;20041;-64
2023/07/17 16:29:10;;;;;;;4.18;1.45;;;;;;;24.97;54.31;100899.22;8284898;28;20034;-65
2023/07/17 16:33:11;;;;;;;3.03;1.20;;;;;;;25.06;54.90;100894.25;8284642;28;20537;-65
2023/07/17 16:37:11;;;;;;;5.82;1.48;;;;;;;24.87;54.59;100886.94;8284205;28;20482;-66
2023/07/17 16:41:11;;;;;;;59.25;4.22;;;;;;;24.56;55.86;100923.75;8280962;28;20369;-66
2023/07/17 16:45:12;;;;;;;25.23;2.53;;;;;;;23.33;59.72;100940.66;8280906;28;20053;-66
2023/07/17 16:49:13;;;;;;;53.47;4.57;;;;;;;22.33;62.39;100948.03;8284358;28;20041;-66
2023/07/17 16:53:13;;;;;;;29.00;3.22;;;;;;;21.58;66.02;100959.03;8284580;28;20042;-66
2023/07/17 16:57:14;;;;;;;28.77;2.53;;;;;;;20.79;72.42;100967.59;8284017;28;20046;-66
2023/07/17 17:01:14;;;;;;;23.70;3.78;;;;;;;20.20;75.72;100972.41;8282790;28;20436;-66
2023/07/17 17:05:15;;;;;;;17.23;2.58;;;;;;;20.20;75.87;100966.06;8285690;28;20326;-66
2023/07/17 17:09:18;;;;;;;12.95;1.80;;;;;;;20.33;75.80;100971.72;8284958;28;20041;-66
2023/07/17 17:13:19;;;;;;;14.23;2.13;;;;;;;20.35;74.47;100986.13;8290912;28;20492;-66
2023/07/17 17:17:19;;;;;;;14.73;2.63;;;;;;;20.49;74.63;100983.34;8290386;28;20068;-66
2023/07/17 17:21:19;;;;;;;9.82;1.40;;;;;;;20.53;74.42;100983.81;8290805;28;20038;-66
2023/07/17 17:25:20;;;;;;;8.43;1.30;;;;;;;20.62;73.02;100982.66;8289835;28;20038;-66
2023/07/17 17:29:20;;;;;;;9.70;1.45;;;;;;;20.83;72.02;100993.66;8287970;28;20034;-66
2023/07/17 17:33:21;;;;;;;5.13;1.30;;;;;;;21.06;70.21;100994.34;8289191;28;20081;-66
2023/07/17 17:37:22;;;;;;;3.58;0.82;;;;;;;21.34;68.53;100996.09;8288077;28;20510;-66
2023/07/17 17:41:23;;;;;;;4.25;1.38;;;;;;;21.58;67.58;101003.06;8289610;28;20045;-66
2023/07/17 17:45:24;;;;;;;4.18;1.10;;;;;;;21.87;66.71;101008.41;8283637;28;20096;-66
2023/07/17 17:49:24;;;;;;;6.07;0.90;;;;;;;21.86;66.48;101001.19;8287786;28;20048;-66
2023/07/17 17:53:25;;;;;;;3.28;1.00;;;;;;;21.84;66.50;101008.81;8290057;28;20128;-66
2023/07/17 17:57:25;;;;;;;2.25;1.45;;;;;;;21.80;67.47;101007.50;8287736;28;20038;-66
2023/07/17 18:01:26;;;;;;;3.95;1.30;;;;;;;21.92;66.42;101016.91;8288982;28;20449;-65
2023/07/17 18:05:26;;;;;;;3.75;1.50;;;;;;;21.94;66.21;101016.69;8287491;28;20042;-66
2023/07/17 18:09:27;;;;;;;2.25;0.85;;;;;;;21.86;65.92;101017.69;8287290;28;20087;-66
2023/07/17 18:13:27;;;;;;;2.58;1.20;;;;;;;21.67;66.53;101012.88;8271648;28;20060;-66
2023/07/17 18:17:28;;;;;;;8.07;1.38;;;;;;;21.87;67.05;101019.44;8282705;28;20076;-67
2023/07/17 18:21:28;;;;;;;2.15;1.60;;;;;;;21.59;67.21;101026.78;8288934;28;20042;-66
2023/07/17 18:25:29;;;;;;;3.78;1.20;;;;;;;21.47;67.36;101028.38;8279896;28;20546;-66
2023/07/17 18:29:30;;;;;;;2.80;1.38;;;;;;;21.42;67.87;101036.38;8288576;28;20089;-66
2023/07/17 18:33:30;;;;;;;3.53;1.40;;;;;;;21.35;68.31;101029.97;8288406;28;20450;-67
2023/07/17 18:37:31;;;;;;;2.28;1.52;;;;;;;21.20;69.04;101040.19;8288352;28;20038;-66
2023/07/17 18:41:32;;;;;;;4.40;1.23;;;;;;;21.14;69.24;101043.72;8284182;28;20058;-66